createdAt,value
2018-11-05T00:00:35.718Z,9.79
2018-11-05T00:03:05.985Z,9.80
2018-11-05T00:05:35.454Z,9.79
2018-11-05T00:08:05.110Z,9.83
2018-11-05T00:10:34.505Z,9.88
2018-11-05T00:13:03.918Z,9.88
2018-11-05T00:15:33.318Z,9.85
2018-11-05T00:18:02.694Z,9.84
2018-11-05T00:20:32.114Z,9.83
2018-11-05T00:23:01.491Z,9.83
2018-11-05T00:25:30.855Z,9.83
2018-11-05T00:28:00.237Z,9.84
2018-11-05T00:30:29.602Z,9.84
2018-11-05T00:32:58.984Z,9.83
2018-11-05T00:35:28.362Z,9.83
2018-11-05T00:37:57.734Z,9.80
2018-11-05T00:40:27.134Z,9.81
2018-11-05T00:42:56.538Z,9.66
2018-11-05T00:45:25.999Z,9.63
2018-11-05T00:47:55.342Z,9.65
2018-11-05T00:50:24.710Z,9.70
2018-11-05T00:52:54.119Z,9.71
2018-11-05T00:55:23.526Z,9.71
2018-11-05T00:57:52.928Z,9.69
2018-11-05T01:00:22.314Z,9.68
2018-11-05T01:02:51.699Z,9.70
2018-11-05T01:05:21.742Z,9.63
2018-11-05T01:07:51.119Z,9.62
2018-11-05T01:10:21.746Z,9.64
2018-11-05T01:12:51.135Z,9.59
2018-11-05T01:15:21.754Z,9.56
2018-11-05T01:17:51.176Z,9.56
2018-11-05T01:20:20.646Z,9.59
2018-11-05T01:22:50.018Z,9.60
2018-11-05T01:25:19.423Z,9.62
2018-11-05T01:27:48.786Z,9.66
2018-11-05T01:30:18.158Z,9.62
2018-11-05T01:32:47.553Z,9.54
2018-11-05T01:35:16.946Z,9.56
2018-11-05T01:37:47.182Z,9.60
2018-11-05T01:40:16.555Z,9.60
2018-11-05T01:42:45.966Z,9.59
2018-11-05T01:45:15.732Z,9.61
2018-11-05T01:47:45.518Z,9.58
2018-11-05T01:50:16.446Z,9.53
2018-11-05T01:52:45.939Z,9.38
2018-11-05T01:55:15.302Z,9.06
2018-11-05T01:57:44.666Z,9.16
2018-11-05T02:00:16.014Z,9.26
2018-11-05T02:02:46.228Z,9.30
2018-11-05T02:05:15.614Z,9.32
2018-11-05T02:07:45.850Z,9.30
2018-11-05T02:10:17.357Z,9.31
2018-11-05T02:12:46.662Z,9.32
2018-11-05T02:15:16.079Z,9.35
2018-11-05T02:17:46.452Z,9.38
2018-11-05T02:20:16.858Z,9.41
2018-11-05T02:22:46.278Z,9.34
2018-11-05T02:25:15.710Z,9.38
2018-11-05T02:27:45.118Z,9.39
2018-11-05T02:30:16.860Z,9.40
2018-11-05T02:32:46.633Z,9.36
2018-11-05T02:35:16.879Z,9.41
2018-11-05T02:37:46.975Z,9.40
2018-11-05T02:40:17.631Z,9.41
2018-11-05T02:42:47.611Z,9.43
2018-11-05T02:45:17.971Z,9.43
2018-11-05T02:47:47.398Z,9.33
2018-11-05T02:50:17.212Z,9.32
2018-11-05T02:52:47.300Z,9.22
2018-11-05T02:55:16.933Z,9.04
2018-11-05T02:57:46.639Z,8.61
2018-11-05T03:00:18.585Z,8.68
2018-11-05T03:02:48.419Z,8.73
2018-11-05T03:05:19.216Z,8.87
2018-11-05T03:07:49.804Z,8.90
2018-11-05T03:10:19.492Z,9.01
2018-11-05T03:12:49.497Z,9.02
2018-11-05T03:15:19.726Z,9.03
2018-11-05T03:17:49.433Z,9.07
2018-11-05T03:20:19.140Z,9.13
2018-11-05T03:22:48.799Z,9.23
2018-11-05T03:25:18.538Z,9.26
2018-11-05T03:27:48.210Z,9.27
2018-11-05T03:30:19.143Z,9.29
2018-11-05T03:32:48.840Z,9.35
2018-11-05T03:35:18.505Z,9.34
2018-11-05T03:37:48.234Z,9.31
2018-11-05T03:40:17.998Z,9.10
2018-11-05T03:42:47.833Z,8.88
2018-11-05T03:45:17.857Z,8.72
2018-11-05T03:47:47.522Z,8.76
2018-11-05T03:50:18.864Z,8.87
2018-11-05T03:52:48.712Z,8.29
2018-11-05T03:55:18.644Z,8.94
2018-11-05T03:57:48.065Z,8.92
2018-11-05T04:00:18.472Z,9.02
2018-11-05T04:02:48.071Z,9.10
2018-11-05T04:05:17.457Z,9.18
2018-11-05T04:07:46.858Z,9.23
2018-11-05T04:10:16.381Z,9.28
2018-11-05T04:12:45.806Z,9.32
2018-11-05T04:15:15.206Z,9.35
2018-11-05T04:17:44.585Z,9.31
2018-11-05T04:20:14.938Z,9.04
2018-11-05T04:22:45.035Z,8.99
2018-11-05T04:25:14.439Z,9.05
2018-11-05T04:27:43.932Z,9.15
2018-11-05T04:30:14.484Z,9.16
2018-11-05T04:32:44.107Z,9.26
2018-11-05T04:35:13.882Z,9.17
2018-11-05T04:37:43.310Z,9.20
2018-11-05T04:40:12.774Z,9.21
2018-11-05T04:42:42.146Z,9.27
2018-11-05T04:45:12.856Z,9.33
2018-11-05T04:47:42.842Z,9.33
2018-11-05T04:50:13.254Z,9.26
2018-11-05T04:52:43.543Z,9.27
2018-11-05T04:55:12.922Z,9.31
2018-11-05T04:57:42.290Z,9.37
2018-11-05T05:00:18.143Z,9.34
2018-11-05T05:02:47.514Z,9.36
2018-11-05T05:05:17.417Z,9.36
2018-11-05T05:07:46.903Z,9.43
2018-11-05T05:10:16.289Z,9.43
2018-11-05T05:12:45.678Z,9.45
2018-11-05T05:15:15.082Z,9.52
2018-11-05T05:17:44.458Z,9.56
2018-11-05T05:20:15.179Z,9.57
2018-11-05T05:22:44.779Z,9.58
2018-11-05T05:25:14.282Z,9.58
2018-11-05T05:27:43.670Z,9.61
2018-11-05T05:30:18.511Z,9.63
2018-11-05T05:32:48.789Z,9.64
2018-11-05T05:35:18.991Z,9.63
2018-11-05T05:37:48.394Z,9.63
2018-11-05T05:40:17.778Z,9.63
2018-11-05T05:42:47.189Z,9.68
2018-11-05T05:45:16.580Z,9.66
2018-11-05T05:47:45.964Z,9.69
2018-11-05T05:50:16.860Z,9.47
2018-11-05T05:52:47.635Z,9.55
2018-11-05T05:55:17.113Z,9.60
2018-11-05T05:57:46.598Z,9.61
2018-11-05T06:00:17.268Z,9.63
2018-11-05T06:02:46.705Z,9.65
2018-11-05T06:05:16.479Z,9.01
2018-11-05T06:07:45.874Z,9.51
2018-11-05T06:10:16.011Z,9.60
2018-11-05T06:12:45.474Z,9.63
2018-11-05T06:15:16.088Z,9.53
2018-11-05T06:17:45.494Z,9.53
2018-11-05T06:20:17.125Z,9.51
2018-11-05T06:22:47.405Z,9.39
2018-11-05T06:25:17.352Z,9.32
2018-11-05T06:27:46.888Z,9.41
2018-11-05T06:30:19.348Z,9.43
2018-11-05T06:32:49.483Z,9.52
2018-11-05T06:35:19.523Z,9.54
2018-11-05T06:37:48.851Z,9.60
2018-11-05T06:40:20.206Z,9.66
2018-11-05T06:42:49.822Z,9.72
2018-11-05T06:45:20.590Z,9.72
2018-11-05T06:47:50.699Z,9.71
2018-11-05T06:50:23.076Z,9.71
2018-11-05T06:52:52.884Z,9.61
2018-11-05T06:55:23.397Z,9.60
2018-11-05T06:57:53.245Z,9.60
2018-11-05T07:00:24.650Z,9.63
2018-11-05T07:02:54.138Z,9.62
2018-11-05T07:05:23.523Z,9.68
2018-11-05T07:07:52.909Z,9.74
2018-11-05T07:10:23.011Z,9.75
2018-11-05T07:12:52.938Z,9.67
2018-11-05T07:15:23.282Z,9.73
2018-11-05T07:17:52.674Z,9.74
2018-11-05T07:20:23.414Z,9.79
2018-11-05T07:22:53.073Z,9.53
2018-11-05T07:25:23.507Z,9.63
2018-11-05T07:27:53.331Z,9.72
2018-11-05T07:30:24.406Z,9.68
2018-11-05T07:32:55.093Z,9.77
2018-11-05T07:35:24.494Z,9.86
2018-11-05T07:37:53.882Z,9.93
2018-11-05T07:40:23.291Z,9.96
2018-11-05T07:42:52.678Z,10.02
2018-11-05T07:45:24.334Z,10.06
2018-11-05T07:47:53.754Z,10.09
2018-11-05T07:50:23.367Z,9.93
2018-11-05T07:52:53.282Z,10.05
2018-11-05T07:55:23.234Z,10.08
2018-11-05T07:57:53.010Z,10.07
2018-11-05T08:00:28.610Z,9.94
2018-11-05T08:02:58.512Z,9.85
2018-11-05T08:05:27.752Z,10.02
2018-11-05T08:07:57.118Z,10.15
2018-11-05T08:10:26.512Z,10.22
2018-11-05T08:12:55.874Z,10.25
2018-11-05T08:15:26.190Z,10.27
2018-11-05T08:17:55.614Z,10.32
2018-11-05T08:20:24.994Z,10.37
2018-11-05T08:22:54.390Z,10.48
2018-11-05T08:25:23.762Z,10.47
2018-11-05T08:27:53.146Z,10.60
2018-11-05T08:30:25.282Z,10.72
2018-11-05T08:32:55.175Z,10.78
2018-11-05T08:35:24.569Z,10.90
2018-11-05T08:37:54.402Z,11.00
2018-11-05T08:40:26.271Z,10.99
2018-11-05T08:42:56.079Z,11.07
2018-11-05T08:45:26.814Z,11.12
2018-11-05T08:47:56.176Z,11.16
2018-11-05T08:50:25.871Z,11.03
2018-11-05T08:52:55.193Z,10.89
2018-11-05T08:55:25.928Z,11.04
2018-11-05T08:57:55.303Z,11.12
2018-11-05T09:00:29.911Z,10.75
2018-11-05T09:02:59.307Z,10.87
2018-11-05T09:05:28.830Z,10.97
2018-11-05T09:07:58.299Z,11.20
2018-11-05T09:10:27.873Z,11.30
2018-11-05T09:12:57.254Z,11.42
2018-11-05T09:15:26.653Z,11.46
2018-11-05T09:17:56.026Z,11.53
2018-11-05T09:20:25.404Z,11.66
2018-11-05T09:22:54.799Z,11.71
2018-11-05T09:25:24.166Z,11.77
2018-11-05T09:27:53.604Z,11.73
2018-11-05T09:30:24.366Z,11.73
2018-11-05T09:32:53.809Z,11.65
2018-11-05T09:35:23.291Z,11.68
2018-11-05T09:37:52.714Z,11.70
2018-11-05T09:40:24.418Z,11.61
2018-11-05T09:42:54.408Z,11.74
2018-11-05T09:45:27.153Z,11.85
2018-11-05T09:47:56.586Z,11.96
2018-11-05T09:50:25.982Z,12.10
2018-11-05T09:52:55.342Z,12.11
2018-11-05T09:55:24.880Z,12.08
2018-11-05T09:57:54.238Z,12.09
2018-11-05T10:00:25.786Z,12.13
2018-11-05T10:03:00.668Z,11.92
2018-11-05T10:05:29.908Z,12.13
2018-11-05T10:07:59.286Z,12.32
2018-11-05T10:10:28.781Z,12.47
2018-11-05T10:12:58.046Z,12.47
2018-11-05T10:15:27.436Z,12.44
2018-11-05T10:17:56.808Z,12.50
2018-11-05T10:20:26.554Z,12.53
2018-11-05T10:22:55.918Z,12.39
2018-11-05T10:25:25.326Z,12.26
2018-11-05T10:27:58.753Z,12.44
2018-11-05T10:30:28.154Z,12.64
2018-11-05T10:32:57.554Z,12.75
2018-11-05T10:35:32.234Z,12.93
2018-11-05T10:38:01.632Z,12.99
2018-11-05T10:40:31.147Z,13.05
2018-11-05T10:43:00.428Z,13.00
2018-11-05T10:45:29.843Z,13.09
2018-11-05T10:47:59.287Z,13.14
2018-11-05T10:50:28.774Z,13.16
2018-11-05T10:52:58.085Z,13.14
2018-11-05T10:55:27.511Z,13.17
2018-11-05T10:57:56.902Z,12.76
2018-11-05T11:00:31.297Z,12.83
2018-11-05T11:03:05.986Z,13.01
2018-11-05T11:05:35.681Z,13.07
2018-11-05T11:08:05.468Z,13.09
2018-11-05T11:10:35.215Z,13.15
2018-11-05T11:13:05.093Z,13.20
2018-11-05T11:15:34.875Z,13.37
2018-11-05T11:18:04.519Z,13.51
2018-11-05T11:20:34.194Z,13.56
2018-11-05T11:23:03.910Z,13.71
2018-11-05T11:25:33.618Z,13.56
2018-11-05T11:28:03.413Z,13.63
2018-11-05T11:30:33.005Z,13.81
2018-11-05T11:33:02.733Z,13.67
2018-11-05T11:35:32.490Z,13.60
2018-11-05T11:38:02.217Z,13.39
2018-11-05T11:40:31.904Z,13.53
2018-11-05T11:43:01.662Z,13.54
2018-11-05T11:45:31.471Z,13.71
2018-11-05T11:48:01.130Z,13.65
2018-11-05T11:50:30.786Z,13.63
2018-11-05T11:53:00.570Z,13.72
2018-11-05T11:55:30.206Z,13.97
2018-11-05T11:58:00.045Z,14.15
2018-11-05T12:00:29.707Z,14.06
2018-11-05T12:02:59.356Z,14.18
2018-11-05T12:05:29.261Z,14.15
2018-11-05T12:07:58.772Z,14.03
2018-11-05T12:10:28.444Z,14.42
2018-11-05T12:12:58.125Z,14.83
2018-11-05T12:15:27.850Z,15.10
2018-11-05T12:17:57.675Z,15.15
2018-11-05T12:20:27.260Z,15.11
2018-11-05T12:22:56.718Z,14.73
2018-11-05T12:25:26.149Z,14.29
2018-11-05T12:27:55.526Z,14.49
2018-11-05T12:30:24.918Z,14.79
2018-11-05T12:32:55.014Z,14.87
2018-11-05T12:35:24.702Z,14.88
2018-11-05T12:37:54.434Z,14.87
2018-11-05T12:40:24.698Z,14.72
2018-11-05T12:42:54.104Z,14.94
2018-11-05T12:45:24.634Z,15.17
2018-11-05T12:47:54.035Z,15.11
2018-11-05T12:50:24.947Z,15.14
2018-11-05T12:52:55.361Z,14.90
2018-11-05T12:55:24.737Z,15.09
2018-11-05T12:57:54.143Z,15.05
2018-11-05T13:00:25.394Z,14.98
2018-11-05T13:02:56.969Z,15.09
2018-11-05T13:05:27.456Z,15.18
2018-11-05T13:07:56.850Z,15.39
2018-11-05T13:10:26.538Z,15.67
2018-11-05T13:12:55.947Z,15.92
2018-11-05T13:15:25.445Z,16.07
2018-11-05T13:17:54.710Z,16.32
2018-11-05T13:20:25.126Z,16.42
2018-11-05T13:22:54.536Z,16.55
2018-11-05T13:25:24.744Z,16.71
2018-11-05T13:27:54.128Z,17.10
2018-11-05T13:30:24.746Z,17.37
2018-11-05T13:32:54.894Z,16.92
2018-11-05T13:35:24.666Z,17.05
2018-11-05T13:37:54.561Z,17.28
2018-11-05T13:40:24.654Z,17.63
2018-11-05T13:42:54.085Z,18.21
2018-11-05T13:45:24.758Z,18.33
2018-11-05T13:47:54.955Z,18.26
2018-11-05T13:50:25.078Z,17.24
2018-11-05T13:52:54.681Z,17.02
2018-11-05T13:55:24.698Z,16.70
2018-11-05T13:57:54.098Z,17.03
2018-11-05T14:00:24.747Z,17.28
2018-11-05T14:02:54.134Z,17.57
2018-11-05T14:05:24.774Z,17.59
2018-11-05T14:07:54.173Z,17.46
2018-11-05T14:10:24.774Z,17.59
2018-11-05T14:12:54.871Z,17.60
2018-11-05T14:15:24.726Z,17.26
2018-11-05T14:17:54.131Z,17.43
2018-11-05T14:20:25.198Z,17.77
2018-11-05T14:22:54.604Z,18.02
2018-11-05T14:25:24.751Z,18.26
2018-11-05T14:27:54.380Z,18.93
2018-11-05T14:30:24.752Z,18.97
2018-11-05T14:32:54.149Z,19.69
2018-11-05T14:35:24.790Z,20.10
2018-11-05T14:37:54.159Z,19.92
2018-11-05T14:40:24.778Z,19.46
2018-11-05T14:42:54.259Z,18.80
2018-11-05T14:45:24.798Z,18.82
2018-11-05T14:47:54.179Z,19.67
2018-11-05T14:50:24.824Z,20.16
2018-11-05T14:52:54.209Z,19.87
2018-11-05T14:55:24.815Z,19.30
2018-11-05T14:57:54.222Z,18.42
2018-11-05T15:00:26.950Z,17.75
2018-11-05T15:02:56.896Z,16.86
2018-11-05T15:05:26.303Z,16.58
2018-11-05T15:07:55.689Z,16.36
2018-11-05T15:10:25.917Z,16.20
2018-11-05T15:12:55.342Z,15.97
2018-11-05T15:15:24.958Z,15.21
2018-11-05T15:17:54.394Z,14.93
2018-11-05T15:20:25.246Z,14.52
2018-11-05T15:22:55.206Z,14.30
2018-11-05T15:25:31.546Z,13.77
2018-11-05T15:28:00.897Z,13.74
2018-11-05T15:30:30.271Z,13.70
2018-11-05T15:32:59.653Z,13.61
2018-11-05T15:35:29.062Z,13.50
2018-11-05T15:37:58.446Z,13.55
2018-11-05T15:40:27.865Z,13.54
2018-11-05T15:42:57.230Z,13.51
2018-11-05T15:45:29.650Z,13.44
2018-11-05T15:47:59.066Z,13.34
2018-11-05T15:50:28.473Z,13.26
2018-11-05T15:52:58.292Z,13.17
2018-11-05T15:55:27.245Z,13.06
2018-11-05T15:57:56.630Z,12.89
2018-11-05T16:00:26.250Z,12.74
2018-11-05T16:02:58.002Z,12.50
2018-11-05T16:05:27.419Z,12.38
2018-11-05T16:07:56.825Z,12.25
2018-11-05T16:10:26.271Z,12.14
2018-11-05T16:12:55.661Z,11.96
2018-11-05T16:15:25.193Z,11.89
2018-11-05T16:17:54.602Z,11.80
2018-11-05T16:20:25.234Z,11.73
2018-11-05T16:22:54.623Z,11.67
2018-11-05T16:25:25.138Z,11.61
2018-11-05T16:27:54.540Z,11.30
2018-11-05T16:30:25.240Z,11.20
2018-11-05T16:32:54.575Z,11.20
2018-11-05T16:35:25.247Z,11.14
2018-11-05T16:37:54.610Z,11.11
2018-11-05T16:40:25.175Z,10.94
2018-11-05T16:42:54.571Z,10.84
2018-11-05T16:45:25.169Z,10.67
2018-11-05T16:47:54.570Z,10.52
2018-11-05T16:50:28.086Z,10.39
2018-11-05T16:52:57.486Z,10.20
2018-11-05T16:55:26.875Z,9.98
2018-11-05T16:57:56.267Z,10.05
2018-11-05T17:00:25.738Z,10.09
2018-11-05T17:02:55.139Z,10.14
2018-11-05T17:05:25.458Z,10.18
2018-11-05T17:07:54.843Z,10.22
2018-11-05T17:10:25.414Z,10.23
2018-11-05T17:12:54.819Z,10.16
2018-11-05T17:15:25.333Z,10.16
2018-11-05T17:17:54.784Z,10.15
2018-11-05T17:20:25.701Z,10.11
2018-11-05T17:22:55.184Z,10.06
2018-11-05T17:25:25.410Z,9.97
2018-11-05T17:27:54.788Z,9.95
2018-11-05T17:30:25.410Z,9.92
2018-11-05T17:32:55.490Z,9.79
2018-11-05T17:35:25.447Z,9.68
2018-11-05T17:37:54.788Z,9.67
2018-11-05T17:40:25.396Z,9.66
2018-11-05T17:42:54.790Z,9.63
2018-11-05T17:45:25.407Z,9.59
2018-11-05T17:47:54.797Z,9.56
2018-11-05T17:50:25.472Z,9.22
2018-11-05T17:52:55.342Z,9.16
2018-11-05T17:55:25.557Z,9.12
2018-11-05T17:57:54.946Z,9.04
2018-11-05T18:00:25.567Z,9.01
2018-11-05T18:02:54.957Z,9.00
2018-11-05T18:05:25.551Z,8.98
2018-11-05T18:07:54.942Z,8.93
2018-11-05T18:10:25.578Z,8.93
2018-11-05T18:12:55.863Z,8.90
2018-11-05T18:15:25.702Z,8.79
2018-11-05T18:17:55.078Z,8.69
2018-11-05T18:20:25.681Z,8.70
2018-11-05T18:22:55.679Z,8.81
2018-11-05T18:25:25.725Z,8.87
2018-11-05T18:27:55.106Z,8.91
2018-11-05T18:30:25.726Z,9.00
2018-11-05T18:32:55.127Z,9.11
2018-11-05T18:35:25.767Z,9.14
2018-11-05T18:37:55.180Z,9.16
2018-11-05T18:40:25.800Z,9.18
2018-11-05T18:42:55.264Z,9.17
2018-11-05T18:45:25.886Z,9.15
2018-11-05T18:47:55.214Z,9.15
2018-11-05T18:50:25.739Z,9.14
2018-11-05T18:52:55.131Z,9.07
2018-11-05T18:55:25.747Z,8.98
2018-11-05T18:57:55.163Z,8.93
2018-11-05T19:00:26.896Z,9.00
2018-11-05T19:02:57.384Z,9.05
2018-11-05T19:05:28.057Z,9.12
2018-11-05T19:07:57.727Z,9.06
2018-11-05T19:10:27.201Z,9.07
2018-11-05T19:12:56.729Z,9.09
2018-11-05T19:15:26.159Z,9.08
2018-11-05T19:17:55.718Z,9.02
2018-11-05T19:20:26.330Z,9.06
2018-11-05T19:22:55.950Z,9.09
2018-11-05T19:25:26.006Z,9.09
2018-11-05T19:27:55.406Z,9.09
2018-11-05T19:30:27.448Z,9.11
2018-11-05T19:32:57.035Z,9.18
2018-11-05T19:35:26.679Z,9.24
2018-11-05T19:37:57.555Z,9.21
2018-11-05T19:40:29.584Z,9.16
2018-11-05T19:43:01.912Z,9.19
2018-11-05T19:45:34.358Z,9.20
2018-11-05T19:48:06.049Z,9.18
2018-11-05T19:50:38.763Z,9.13
2018-11-05T19:53:11.487Z,9.19
2018-11-05T19:55:43.931Z,9.16
2018-11-05T19:58:16.540Z,9.15
2018-11-05T20:00:48.494Z,9.15
2018-11-05T20:03:21.529Z,9.07
2018-11-05T20:05:54.785Z,9.08
2018-11-05T20:08:27.366Z,9.05
2018-11-05T20:11:00.331Z,9.02
2018-11-05T20:13:33.162Z,8.95
2018-11-05T20:16:05.486Z,8.84
2018-11-05T20:18:36.076Z,8.81
2018-11-05T20:21:08.967Z,8.77
2018-11-05T20:23:41.078Z,8.73
2018-11-05T20:26:13.020Z,8.73
2018-11-05T20:28:45.512Z,8.70
2018-11-05T20:31:18.871Z,8.74
2018-11-05T20:33:51.793Z,8.74
2018-11-05T20:36:24.794Z,8.75
2018-11-05T20:38:57.794Z,8.75
2018-11-05T20:41:30.392Z,8.59
2018-11-05T20:44:01.465Z,8.45
2018-11-05T20:46:34.546Z,8.37
2018-11-05T20:49:06.567Z,8.20
2018-11-05T20:51:38.687Z,8.14
2018-11-05T20:54:09.472Z,8.14
2018-11-05T20:56:40.667Z,8.10
2018-11-05T20:59:13.237Z,7.99
2018-11-05T21:01:42.732Z,7.89
2018-11-05T21:04:12.523Z,7.74
2018-11-05T21:06:41.939Z,7.70
2018-11-05T21:09:12.261Z,7.65
2018-11-05T21:11:41.679Z,7.56
2018-11-05T21:14:11.116Z,7.39
2018-11-05T21:16:40.577Z,7.28
2018-11-05T21:19:09.962Z,7.26
2018-11-05T21:21:39.498Z,7.23
2018-11-05T21:24:08.763Z,7.19
2018-11-05T21:26:38.256Z,7.13
2018-11-05T21:29:07.578Z,7.03
2018-11-05T21:31:36.990Z,7.04
2018-11-05T21:34:06.395Z,7.05
2018-11-05T21:36:35.775Z,7.04
2018-11-05T21:39:08.566Z,7.04
2018-11-05T21:41:37.952Z,7.06
2018-11-05T21:44:08.008Z,7.08
2018-11-05T21:46:37.538Z,7.08
2018-11-05T21:49:07.375Z,7.06
2018-11-05T21:51:36.803Z,7.07
2018-11-05T21:54:06.615Z,7.04
2018-11-05T21:56:36.197Z,7.04
2018-11-05T21:59:05.598Z,7.07
2018-11-05T22:01:34.975Z,7.06
2018-11-05T22:04:04.394Z,6.94
2018-11-05T22:06:33.762Z,6.99
2018-11-05T22:09:03.619Z,6.97
2018-11-05T22:11:33.042Z,6.97
2018-11-05T22:14:02.408Z,6.99
2018-11-05T22:16:31.798Z,7.01
2018-11-05T22:19:02.238Z,7.08
2018-11-05T22:21:31.638Z,7.04
2018-11-05T22:24:01.203Z,7.13
2018-11-05T22:26:30.677Z,7.08
2018-11-05T22:29:00.043Z,7.18
2018-11-05T22:31:29.466Z,7.23
2018-11-05T22:33:58.859Z,7.25
2018-11-05T22:36:28.230Z,7.13
2018-11-05T22:38:57.650Z,6.97
2018-11-05T22:41:27.359Z,7.08
2018-11-05T22:43:56.763Z,7.17
2018-11-05T22:46:26.154Z,7.18
2018-11-05T22:48:55.545Z,7.22
2018-11-05T22:51:24.943Z,7.28
2018-11-05T22:53:54.397Z,7.29
2018-11-05T22:56:24.049Z,7.30
2018-11-05T22:58:53.418Z,7.20
2018-11-05T23:01:28.243Z,7.24
2018-11-05T23:03:57.651Z,7.20
2018-11-05T23:06:27.223Z,7.08
2018-11-05T23:08:56.626Z,7.09
2018-11-05T23:11:26.306Z,6.91
2018-11-05T23:13:55.762Z,6.75
2018-11-05T23:16:25.168Z,6.75
2018-11-05T23:18:54.671Z,6.69
2018-11-05T23:21:24.063Z,6.59
2018-11-05T23:23:53.490Z,6.49
2018-11-05T23:26:22.890Z,6.50
2018-11-05T23:28:52.298Z,6.44
2018-11-05T23:31:21.675Z,6.41
2018-11-05T23:33:51.060Z,6.33
2018-11-05T23:36:20.441Z,6.31
2018-11-05T23:38:49.829Z,6.35
2018-11-05T23:41:19.227Z,6.34
2018-11-05T23:43:48.597Z,6.39
2018-11-05T23:46:18.015Z,6.40
2018-11-05T23:48:47.394Z,6.44
2018-11-05T23:51:16.783Z,6.50
2018-11-05T23:53:46.158Z,6.52
2018-11-05T23:56:15.546Z,6.51
2018-11-05T23:58:44.938Z,6.51
